Azalea Park, Florida
Current Conditions -  °F | °C
As of 7:53 PM on Monday 22 Dec 2014 (Local Time) from KORL Reporting Station
Few Clouds Few Clouds  
Wind Chill: 73°   Ceiling: Unl
Heat Index: 73°   Visibility: 10mi
Dew Point: 68°   Wind: 5mph
Humidity: 84%   Direction: 190°S
Pressure: 29.94"   Gusts: NA
Location:  28.5525°N, 81.3003°W
Report Text: KORL 230053Z 19004KT 10SM FEW042 23/20 A2994 RMK AO2 SLPNO T02280200
Loading
Personal Weather Stations






























Interactive Weather Map New forecast layout! Learn more

10-Day Weather Forecast

Advertisements
Track Severe Weather on mobile